Garden Plain, Kansas
Current Conditions -  °F | °C
As of 12:53 PM on Tuesday 21 Oct 2014 (Local Time) from KICT Reporting Station
Few Clouds Few Clouds  
Wind Chill: 77°   Ceiling: Unl
Heat Index: 79°   Visibility: 10mi
Dew Point: 56°   Wind: 14mph
Humidity: 48%   Direction: 160°SSE
Pressure: 30.08"   Gusts: NA
Location:  37.66°N, 97.68°W
Report Text: KICT 211753Z 16012KT 10SM FEW050 FEW090 25/13 A3008 RMK AO2 SLP178 T02500133 10250 20122 58009
Loading
Personal Weather Stations






























Interactive Weather Map
Tropical Storm Tracking
New forecast layout! Learn more

10-Day Weather Forecast

Advertisements
Track Severe Weather on mobile